createdAt,value
2018-09-03T00:02:04.422Z,36.63
2018-09-03T00:04:29.834Z,36.64
2018-09-03T00:06:56.464Z,36.65
2018-09-03T00:09:24.933Z,36.65
2018-09-03T00:11:49.746Z,36.64
2018-09-03T00:14:16.376Z,36.58
2018-09-03T00:16:43.024Z,36.74
2018-09-03T00:19:09.679Z,36.75
2018-09-03T00:21:39.684Z,36.82
2018-09-03T00:24:06.396Z,36.73
2018-09-03T00:26:33.032Z,36.84
2018-09-03T00:29:02.607Z,36.81
2018-09-03T00:31:29.272Z,36.80
2018-09-03T00:33:55.956Z,36.91
2018-09-03T00:36:22.566Z,36.95
2018-09-03T00:38:49.226Z,36.93
2018-09-03T00:41:15.898Z,36.96
2018-09-03T00:43:42.515Z,37.01
2018-09-03T00:46:09.203Z,37.05
2018-09-03T00:48:35.860Z,37.01
2018-09-03T00:51:05.773Z,37.11
2018-09-03T00:53:32.409Z,37.09
2018-09-03T00:55:59.079Z,37.12
2018-09-03T00:58:25.692Z,37.13
2018-09-03T01:00:52.344Z,37.25
2018-09-03T01:03:18.997Z,37.25
2018-09-03T01:05:45.640Z,37.23
2018-09-03T01:08:12.316Z,37.29
2018-09-03T01:10:38.927Z,37.29
2018-09-03T01:13:05.565Z,37.27
2018-09-03T01:15:32.283Z,37.29
2018-09-03T01:17:58.956Z,37.31
2018-09-03T01:20:25.632Z,37.24
2018-09-03T01:22:52.275Z,37.28
2018-09-03T01:25:18.906Z,37.38
2018-09-03T01:27:45.609Z,37.42
2018-09-03T01:30:12.246Z,37.32
2018-09-03T01:32:39.362Z,37.43
2018-09-03T01:35:06.003Z,37.48
2018-09-03T01:37:32.710Z,37.42
2018-09-03T01:39:59.351Z,37.57
2018-09-03T01:42:25.999Z,37.48
2018-09-03T01:44:52.652Z,37.49
2018-09-03T01:47:19.293Z,37.53
2018-09-03T01:49:45.975Z,37.56
2018-09-03T01:52:12.593Z,37.68
2018-09-03T01:54:39.234Z,37.65
2018-09-03T01:57:05.885Z,37.71
2018-09-03T01:59:32.529Z,37.57
2018-09-03T02:02:00.627Z,37.65
2018-09-03T02:04:25.852Z,37.72
2018-09-03T02:06:52.544Z,37.73
2018-09-03T02:09:19.169Z,37.91
2018-09-03T02:11:45.801Z,37.84
2018-09-03T02:14:12.541Z,37.86
2018-09-03T02:16:39.147Z,37.72
2018-09-03T02:19:05.785Z,37.84
2018-09-03T02:21:32.426Z,37.92
2018-09-03T02:23:59.095Z,37.81
2018-09-03T02:26:25.842Z,37.93
2018-09-03T02:28:52.487Z,37.87
2018-09-03T02:31:19.123Z,37.88
2018-09-03T02:33:45.767Z,37.95
2018-09-03T02:36:16.772Z,37.92
2018-09-03T02:38:42.738Z,37.88
2018-09-03T02:41:09.591Z,37.95
2018-09-03T02:43:36.237Z,37.99
2018-09-03T02:46:02.875Z,38.17
2018-09-03T02:48:29.541Z,38.08
2018-09-03T02:50:56.189Z,38.07
2018-09-03T02:53:22.883Z,38.06
2018-09-03T02:55:56.302Z,38.14
2018-09-03T02:58:22.961Z,38.29
2018-09-03T03:00:49.716Z,38.25
2018-09-03T03:03:16.456Z,38.26
2018-09-03T03:05:43.096Z,38.28
2018-09-03T03:08:09.737Z,38.31
2018-09-03T03:10:36.532Z,38.23
2018-09-03T03:13:04.473Z,38.33
2018-09-03T03:15:29.807Z,38.41
2018-09-03T03:17:56.447Z,38.16
2018-09-03T03:20:23.191Z,38.23
2018-09-03T03:22:49.826Z,38.22
2018-09-03T03:25:16.565Z,39.84
2018-09-03T03:27:43.204Z,38.48
2018-09-03T03:30:09.891Z,38.76
2018-09-03T03:32:36.532Z,38.52
2018-09-03T03:35:04.380Z,38.56
2018-09-03T03:37:30.187Z,38.59
2018-09-03T03:39:56.786Z,38.59
2018-09-03T03:42:23.437Z,38.54
2018-09-03T03:44:50.174Z,38.74
2018-09-03T03:47:20.507Z,38.66
2018-09-03T03:49:47.240Z,38.65
2018-09-03T03:52:13.928Z,38.72
2018-09-03T03:54:40.567Z,38.61
2018-09-03T03:57:07.258Z,38.69
2018-09-03T03:59:35.539Z,38.74
2018-09-03T04:02:05.628Z,38.72
2018-09-03T04:04:32.341Z,38.62
2018-09-03T04:06:59.091Z,38.71
2018-09-03T04:09:25.855Z,38.85
2018-09-03T04:11:55.260Z,38.93
2018-09-03T04:14:21.936Z,39.06
2018-09-03T04:16:48.578Z,39.07
2018-09-03T04:19:15.253Z,39.04
2018-09-03T04:21:41.879Z,39.01
2018-09-03T04:24:08.575Z,39.07
2018-09-03T04:26:35.186Z,39.17
2018-09-03T04:29:01.823Z,39.02
2018-09-03T04:31:28.524Z,39.04
2018-09-03T04:33:55.393Z,39.16
2018-09-03T04:36:22.080Z,38.96
2018-09-03T04:38:51.669Z,38.89
2018-09-03T04:41:18.210Z,39.08
2018-09-03T04:43:44.866Z,38.94
2018-09-03T04:46:11.541Z,39.04
2018-09-03T04:48:38.226Z,39.02
2018-09-03T04:51:04.892Z,39.00
2018-09-03T04:53:31.545Z,39.06
2018-09-03T04:55:58.194Z,38.91
2018-09-03T04:58:26.336Z,38.97
2018-09-03T05:00:51.524Z,39.05
2018-09-03T05:03:18.147Z,39.20
2018-09-03T05:05:44.863Z,39.18
2018-09-03T05:08:11.470Z,38.94
2018-09-03T05:10:38.190Z,38.88
2018-09-03T05:13:05.000Z,39.09
2018-09-03T05:15:33.139Z,39.04
2018-09-03T05:17:58.382Z,39.51
2018-09-03T05:20:25.045Z,39.49
2018-09-03T05:22:51.726Z,39.35
2018-09-03T05:25:19.752Z,39.30
2018-09-03T05:27:45.087Z,39.31
2018-09-03T05:30:11.738Z,39.34
2018-09-03T05:32:38.424Z,39.26
2018-09-03T05:35:05.059Z,39.30
2018-09-03T05:37:31.723Z,39.33
2018-09-03T05:39:58.431Z,39.35
2018-09-03T05:42:25.168Z,39.29
2018-09-03T05:44:51.820Z,39.06
2018-09-03T05:47:18.487Z,38.98
2018-09-03T05:49:45.252Z,39.02
2018-09-03T05:52:11.906Z,39.02
2018-09-03T05:54:38.704Z,39.10
2018-09-03T05:57:05.393Z,38.81
2018-09-03T05:59:32.161Z,38.71
2018-09-03T06:01:58.801Z,39.52
2018-09-03T06:04:25.446Z,39.66
2018-09-03T06:06:52.095Z,39.48
2018-09-03T06:09:18.738Z,39.63
2018-09-03T06:11:45.441Z,39.66
2018-09-03T06:14:12.096Z,39.73
2018-09-03T06:16:38.867Z,39.63
2018-09-03T06:19:06.880Z,40.42
2018-09-03T06:21:32.155Z,40.77
2018-09-03T06:24:03.663Z,41.72
2018-09-03T06:26:25.672Z,41.77
2018-09-03T06:28:52.309Z,41.02
2018-09-03T06:31:18.984Z,40.86
2018-09-03T06:33:45.620Z,40.72
2018-09-03T06:36:12.262Z,40.60
2018-09-03T06:38:39.054Z,40.71
2018-09-03T06:41:08.409Z,40.78
2018-09-03T06:43:36.595Z,41.21
2018-09-03T06:46:01.830Z,41.43
2018-09-03T06:48:28.531Z,42.01
2018-09-03T06:50:55.289Z,41.33
2018-09-03T06:53:22.026Z,41.28
2018-09-03T06:55:48.703Z,41.02
2018-09-03T06:58:15.445Z,41.40
2018-09-03T07:00:42.098Z,41.94
2018-09-03T07:03:08.793Z,41.32
2018-09-03T07:05:35.516Z,41.78
2018-09-03T07:08:02.185Z,41.28
2018-09-03T07:10:28.968Z,41.06
2018-09-03T07:12:55.704Z,41.67
2018-09-03T07:15:22.387Z,42.21
2018-09-03T07:17:49.045Z,42.04
2018-09-03T07:20:15.699Z,41.68
2018-09-03T07:22:42.458Z,41.78
2018-09-03T07:25:09.171Z,41.55
2018-09-03T07:27:38.238Z,40.92
2018-09-03T07:30:02.683Z,41.56
2018-09-03T07:32:29.408Z,41.63
2018-09-03T07:34:56.052Z,41.16
2018-09-03T07:37:22.705Z,41.21
2018-09-03T07:39:49.435Z,41.37
2018-09-03T07:42:17.412Z,41.51
2018-09-03T07:44:42.810Z,41.31
2018-09-03T07:47:09.451Z,40.87
2018-09-03T07:49:36.149Z,40.69
2018-09-03T07:52:08.031Z,40.91
2018-09-03T07:54:36.106Z,40.60
2018-09-03T07:57:01.388Z,40.54
2018-09-03T07:59:28.095Z,41.28
2018-09-03T08:01:54.791Z,41.50
2018-09-03T08:04:21.482Z,41.40
2018-09-03T08:06:49.222Z,41.61
2018-09-03T08:09:15.944Z,41.29
2018-09-03T08:11:42.594Z,41.43
2018-09-03T08:14:09.355Z,41.31
2018-09-03T08:16:36.125Z,41.72
2018-09-03T08:19:02.849Z,42.06
2018-09-03T08:21:29.552Z,42.38
2018-09-03T08:23:56.270Z,42.32
2018-09-03T08:26:22.950Z,42.51
2018-09-03T08:28:49.615Z,42.31
2018-09-03T08:31:16.301Z,41.95
2018-09-03T08:33:42.936Z,41.70
2018-09-03T08:36:09.637Z,41.23
2018-09-03T08:38:36.271Z,41.23
2018-09-03T08:41:03.016Z,40.94
2018-09-03T08:43:29.693Z,40.67
2018-09-03T08:45:56.338Z,40.54
2018-09-03T08:48:23.125Z,40.37
2018-09-03T08:50:49.785Z,41.00
2018-09-03T08:53:16.489Z,41.48
2018-09-03T08:55:43.152Z,41.99
2018-09-03T08:58:09.880Z,41.96
2018-09-03T09:00:36.671Z,42.18
2018-09-03T09:03:03.346Z,41.95
2018-09-03T09:05:30.077Z,42.10
2018-09-03T09:07:56.724Z,42.02
2018-09-03T09:10:23.413Z,42.72
2018-09-03T09:12:50.195Z,42.59
2018-09-03T09:15:17.114Z,42.68
2018-09-03T09:17:43.785Z,42.09
2018-09-03T09:20:10.519Z,41.36
2018-09-03T09:22:40.407Z,41.60
2018-09-03T09:25:07.132Z,41.16
2018-09-03T09:27:34.046Z,40.59
2018-09-03T09:30:00.813Z,41.62
2018-09-03T09:32:27.465Z,41.70
2018-09-03T09:34:55.894Z,42.12
2018-09-03T09:37:20.803Z,42.12
2018-09-03T09:39:47.489Z,41.97
2018-09-03T09:42:14.347Z,41.82
2018-09-03T09:44:41.020Z,42.31
2018-09-03T09:47:07.723Z,42.04
2018-09-03T09:49:34.367Z,42.13
2018-09-03T09:52:01.063Z,42.21
2018-09-03T09:54:27.805Z,42.10
2018-09-03T09:56:54.482Z,42.03
2018-09-03T09:59:23.360Z,41.46
2018-09-03T10:01:50.033Z,41.28
2018-09-03T10:04:16.732Z,40.66
2018-09-03T10:06:43.413Z,40.35
2018-09-03T10:09:10.063Z,40.27
2018-09-03T10:11:36.707Z,41.31
2018-09-03T10:14:03.431Z,41.42
2018-09-03T10:16:30.079Z,41.37
2018-09-03T10:18:56.945Z,41.33
2018-09-03T10:21:23.685Z,41.21
2018-09-03T10:23:52.488Z,41.34
2018-09-03T10:26:17.099Z,41.32
2018-09-03T10:28:43.701Z,41.22
2018-09-03T10:31:10.413Z,41.12
2018-09-03T10:33:37.138Z,41.02
2018-09-03T10:36:03.783Z,41.03
2018-09-03T10:38:31.439Z,40.83
2018-09-03T10:40:58.100Z,40.98
2018-09-03T10:43:24.775Z,41.17
2018-09-03T10:45:51.422Z,40.62
2018-09-03T10:48:18.134Z,40.53
2018-09-03T10:50:44.790Z,40.65
2018-09-03T10:53:12.678Z,40.36
2018-09-03T10:55:40.299Z,40.33
2018-09-03T10:58:06.998Z,40.13
2018-09-03T11:00:33.713Z,40.55
2018-09-03T11:03:00.360Z,40.46
2018-09-03T11:05:27.120Z,40.09
2018-09-03T11:07:56.619Z,40.45
2018-09-03T11:10:23.264Z,40.53
2018-09-03T11:12:49.948Z,40.55
2018-09-03T11:15:16.609Z,40.37
2018-09-03T11:17:46.228Z,40.55
2018-09-03T11:20:12.878Z,40.40
2018-09-03T11:22:39.616Z,40.13
2018-09-03T11:25:06.275Z,39.71
2018-09-03T11:27:33.019Z,39.84
2018-09-03T11:29:59.838Z,39.55
2018-09-03T11:32:26.532Z,39.38
2018-09-03T11:34:53.299Z,39.14
2018-09-03T11:37:23.074Z,39.40
2018-09-03T11:39:49.781Z,38.93
2018-09-03T11:42:19.679Z,38.73
2018-09-03T11:44:46.330Z,38.89
2018-09-03T11:47:13.075Z,38.55
2018-09-03T11:49:39.742Z,38.37
2018-09-03T11:52:06.421Z,38.40
2018-09-03T11:54:35.281Z,38.78
2018-09-03T11:57:03.160Z,39.55
2018-09-03T11:59:28.655Z,39.03
2018-09-03T12:01:55.389Z,39.29
2018-09-03T12:04:22.112Z,38.89
2018-09-03T12:06:48.817Z,38.77
2018-09-03T12:09:15.414Z,38.82
2018-09-03T12:11:42.055Z,39.41
2018-09-03T12:14:08.702Z,39.19
2018-09-03T12:16:35.377Z,39.52
2018-09-03T12:19:04.277Z,39.38
2018-09-03T12:21:30.959Z,39.70
2018-09-03T12:24:00.837Z,39.40
2018-09-03T12:26:27.463Z,39.67
2018-09-03T12:28:54.090Z,39.12
2018-09-03T12:31:22.537Z,39.33
2018-09-03T12:33:47.636Z,40.07
2018-09-03T12:36:14.274Z,40.21
2018-09-03T12:38:40.941Z,40.69
2018-09-03T12:41:07.592Z,40.42
2018-09-03T12:43:34.242Z,40.68
2018-09-03T12:46:00.991Z,41.15
2018-09-03T12:48:27.534Z,41.56
2018-09-03T12:50:54.272Z,41.57
2018-09-03T12:53:22.244Z,41.70
2018-09-03T12:55:47.573Z,41.97
2018-09-03T12:58:14.311Z,41.79
2018-09-03T13:00:40.987Z,41.07
2018-09-03T13:03:08.655Z,42.32
2018-09-03T13:05:35.294Z,43.60
2018-09-03T13:08:01.986Z,43.47
2018-09-03T13:10:28.676Z,43.01
2018-09-03T13:12:56.783Z,43.29
2018-09-03T13:15:21.981Z,43.41
2018-09-03T13:17:48.722Z,44.03
2018-09-03T13:20:15.361Z,44.16
2018-09-03T13:22:42.112Z,43.87
2018-09-03T13:25:09.845Z,44.12
2018-09-03T13:27:35.442Z,43.84
2018-09-03T13:30:02.085Z,43.44
2018-09-03T13:32:28.762Z,43.94
2018-09-03T13:34:55.428Z,43.72
2018-09-03T13:37:22.072Z,43.86
2018-09-03T13:39:48.824Z,44.17
2018-09-03T13:42:15.559Z,45.06
2018-09-03T13:44:42.272Z,44.88
2018-09-03T13:47:16.519Z,44.97
2018-09-03T13:49:41.916Z,44.89
2018-09-03T13:52:08.625Z,45.53
2018-09-03T13:54:35.306Z,45.83
2018-09-03T13:57:01.986Z,45.78
2018-09-03T13:59:28.785Z,46.16
2018-09-03T14:01:55.524Z,45.81
2018-09-03T14:04:22.183Z,44.83
2018-09-03T14:06:48.877Z,45.55
2018-09-03T14:09:15.502Z,46.35
2018-09-03T14:11:42.289Z,46.95
2018-09-03T14:14:10.036Z,46.62
2018-09-03T14:16:35.716Z,46.39
2018-09-03T14:19:02.375Z,46.15
2018-09-03T14:21:29.076Z,46.05
2018-09-03T14:23:55.837Z,45.87
2018-09-03T14:26:22.619Z,45.83
2018-09-03T14:28:51.717Z,45.68
2018-09-03T14:31:18.321Z,45.09
2018-09-03T14:33:45.010Z,45.04
2018-09-03T14:36:11.666Z,46.64
2018-09-03T14:38:38.321Z,46.45
2018-09-03T14:41:04.959Z,46.70
2018-09-03T14:43:31.618Z,46.81
2018-09-03T14:45:58.290Z,46.53
2018-09-03T14:48:28.163Z,46.19
2018-09-03T14:50:54.830Z,46.20
2018-09-03T14:53:21.740Z,46.22
2018-09-03T14:55:48.477Z,46.25
2018-09-03T14:58:15.185Z,46.17
2018-09-03T15:00:44.630Z,45.91
2018-09-03T15:03:11.308Z,45.52
2018-09-03T15:05:37.945Z,45.54
2018-09-03T15:08:04.640Z,45.99
2018-09-03T15:10:31.248Z,46.86
2018-09-03T15:12:57.978Z,47.30
2018-09-03T15:15:24.625Z,47.36
2018-09-03T15:17:51.294Z,47.23
2018-09-03T15:20:18.859Z,46.91
2018-09-03T15:22:45.549Z,46.49
2018-09-03T15:25:12.211Z,46.41
2018-09-03T15:27:38.857Z,46.26
2018-09-03T15:30:05.509Z,46.11
2018-09-03T15:32:32.246Z,46.07
2018-09-03T15:34:58.898Z,45.97
2018-09-03T15:37:25.596Z,46.08
2018-09-03T15:39:52.292Z,46.16
2018-09-03T15:42:19.031Z,46.05
2018-09-03T15:44:45.759Z,46.22
2018-09-03T15:47:12.445Z,46.20
2018-09-03T15:49:39.100Z,45.47
2018-09-03T15:52:05.886Z,45.89
2018-09-03T15:54:33.745Z,47.10
2018-09-03T15:56:59.267Z,47.44
2018-09-03T15:59:25.918Z,47.53
2018-09-03T16:01:52.548Z,47.75
2018-09-03T16:04:19.293Z,47.23
2018-09-03T16:06:45.932Z,46.88
2018-09-03T16:09:12.701Z,46.87
2018-09-03T16:11:39.264Z,46.73
2018-09-03T16:14:05.945Z,46.82
2018-09-03T16:16:32.560Z,47.01
2018-09-03T16:18:59.310Z,46.92
2018-09-03T16:21:25.992Z,46.81
2018-09-03T16:23:52.688Z,46.97
2018-09-03T16:26:19.402Z,46.92
2018-09-03T16:28:46.043Z,46.96
2018-09-03T16:31:12.681Z,46.83
2018-09-03T16:33:39.388Z,46.81
2018-09-03T16:36:06.031Z,46.75
2018-09-03T16:38:32.702Z,46.73
2018-09-03T16:40:59.391Z,46.59
2018-09-03T16:43:26.050Z,46.91
2018-09-03T16:45:52.766Z,46.99
2018-09-03T16:48:19.483Z,46.62
2018-09-03T16:50:46.132Z,46.87
2018-09-03T16:53:12.823Z,47.07
2018-09-03T16:55:39.437Z,47.37
2018-09-03T16:58:06.076Z,47.56
2018-09-03T17:00:32.725Z,47.39
2018-09-03T17:02:59.375Z,47.51
2018-09-03T17:05:26.073Z,47.45
2018-09-03T17:07:52.768Z,47.46
2018-09-03T17:10:19.392Z,47.81
2018-09-03T17:12:48.539Z,47.60
2018-09-03T17:15:13.151Z,47.70
2018-09-03T17:17:41.833Z,47.66
2018-09-03T17:20:06.444Z,47.52
2018-09-03T17:22:33.121Z,47.61
2018-09-03T17:25:00.743Z,47.91
2018-09-03T17:27:27.446Z,47.75
2018-09-03T17:29:54.082Z,47.88
2018-09-03T17:32:20.740Z,48.20
2018-09-03T17:34:47.430Z,48.07
2018-09-03T17:37:16.871Z,47.76
2018-09-03T17:39:43.555Z,48.09
2018-09-03T17:42:11.215Z,47.98
2018-09-03T17:44:37.907Z,47.73
2018-09-03T17:47:04.597Z,47.93
2018-09-03T17:49:31.336Z,47.76
2018-09-03T17:51:57.922Z,48.01
2018-09-03T17:54:24.564Z,47.92
2018-09-03T17:56:51.220Z,48.01
2018-09-03T17:59:17.867Z,48.09
2018-09-03T18:01:44.576Z,47.77
2018-09-03T18:04:11.260Z,48.00
2018-09-03T18:06:37.898Z,48.16
2018-09-03T18:09:06.510Z,48.07
2018-09-03T18:11:31.200Z,48.08
2018-09-03T18:13:57.905Z,48.24
2018-09-03T18:16:24.749Z,48.25
2018-09-03T18:18:51.339Z,48.10
2018-09-03T18:21:18.078Z,48.04
2018-09-03T18:23:44.714Z,48.29
2018-09-03T18:26:11.397Z,48.23
2018-09-03T18:28:38.047Z,48.15
2018-09-03T18:31:04.720Z,47.96
2018-09-03T18:33:31.475Z,48.05
2018-09-03T18:35:58.174Z,48.12
2018-09-03T18:38:24.807Z,48.37
2018-09-03T18:40:51.555Z,48.23
2018-09-03T18:43:18.207Z,48.31
2018-09-03T18:45:44.932Z,48.34
2018-09-03T18:48:11.537Z,48.36
2018-09-03T18:50:38.251Z,48.28
2018-09-03T18:53:04.998Z,48.38
2018-09-03T18:55:31.690Z,48.39
2018-09-03T18:57:58.349Z,48.42
2018-09-03T19:00:26.428Z,48.38
2018-09-03T19:02:51.726Z,48.35
2018-09-03T19:05:18.446Z,48.29
2018-09-03T19:07:45.153Z,48.46
2018-09-03T19:10:11.817Z,48.42
2018-09-03T19:12:38.523Z,48.33
2018-09-03T19:15:05.153Z,48.25
2018-09-03T19:17:31.794Z,48.30
2018-09-03T19:19:58.537Z,48.23
2018-09-03T19:22:26.899Z,48.26
2018-09-03T19:24:53.563Z,48.30
2018-09-03T19:27:20.267Z,48.26
2018-09-03T19:29:46.940Z,48.24
2018-09-03T19:32:13.542Z,48.34
2018-09-03T19:34:40.191Z,48.34
2018-09-03T19:37:06.830Z,48.31
2018-09-03T19:39:33.598Z,48.36
2018-09-03T19:42:01.640Z,48.32
2018-09-03T19:44:28.210Z,48.32
2018-09-03T19:46:53.622Z,48.30
2018-09-03T19:49:20.270Z,48.19
2018-09-03T19:51:46.916Z,48.14
2018-09-03T19:54:13.686Z,48.32
2018-09-03T19:56:40.340Z,48.41
2018-09-03T19:59:07.024Z,48.36
2018-09-03T20:01:33.671Z,48.41
2018-09-03T20:04:00.402Z,48.40
2018-09-03T20:06:27.072Z,48.39
2018-09-03T20:08:53.729Z,48.53
2018-09-03T20:11:20.361Z,48.37
2018-09-03T20:13:48.512Z,48.45
2018-09-03T20:16:13.701Z,48.48
2018-09-03T20:18:40.339Z,48.44
2018-09-03T20:21:07.072Z,48.58
2018-09-03T20:23:36.321Z,48.45
2018-09-03T20:26:02.851Z,48.42
2018-09-03T20:28:29.543Z,48.50
2018-09-03T20:30:56.224Z,48.53
2018-09-03T20:33:22.988Z,48.46
2018-09-03T20:35:49.669Z,48.49
2018-09-03T20:38:16.309Z,48.55
2018-09-03T20:40:43.036Z,48.60
2018-09-03T20:45:08.083Z,48.64
2018-09-03T20:47:34.823Z,48.67
2018-09-03T20:50:04.302Z,48.63
2018-09-03T20:52:30.989Z,48.75
2018-09-03T20:54:57.709Z,48.79
2018-09-03T20:57:24.384Z,48.82
2018-09-03T20:59:51.048Z,48.83
2018-09-03T21:02:17.789Z,48.87
2018-09-03T21:04:44.427Z,48.86
2018-09-03T21:07:11.347Z,49.10
2018-09-03T21:09:38.144Z,49.05
2018-09-03T21:12:04.826Z,49.03
2018-09-03T21:14:31.456Z,49.05
2018-09-03T21:16:58.111Z,49.20
2018-09-03T21:19:24.829Z,49.19
2018-09-03T21:21:51.542Z,49.37
2018-09-03T21:24:18.098Z,49.33
2018-09-03T21:26:44.807Z,49.21
2018-09-03T21:29:12.774Z,49.43
2018-09-03T21:31:38.087Z,49.46
2018-09-03T21:34:04.811Z,49.40
2018-09-03T21:36:31.477Z,49.56
2018-09-03T21:38:58.099Z,49.41
2018-09-03T21:41:24.784Z,49.58
2018-09-03T21:43:51.497Z,49.68
2018-09-03T21:46:18.221Z,49.71
2018-09-03T21:48:45.130Z,49.70
2018-09-03T21:51:11.732Z,49.62
2018-09-03T21:53:38.369Z,49.73
2018-09-03T21:56:05.031Z,49.66
2018-09-03T21:58:31.716Z,49.88
2018-09-03T22:00:58.355Z,49.88
2018-09-03T22:03:25.000Z,49.86
2018-09-03T22:05:51.666Z,49.95
2018-09-03T22:08:18.284Z,49.97
2018-09-03T22:10:46.267Z,50.11
2018-09-03T22:13:12.753Z,50.11
2018-09-03T22:15:38.204Z,50.30
2018-09-03T22:18:04.898Z,50.03
2018-09-03T22:20:31.528Z,50.38
2018-09-03T22:22:58.165Z,50.40
2018-09-03T22:25:24.884Z,50.49
2018-09-03T22:27:51.571Z,50.38
2018-09-03T22:30:18.252Z,50.49
2018-09-03T22:32:44.950Z,50.35
2018-09-03T22:35:11.639Z,50.31
2018-09-03T22:37:38.284Z,50.37
2018-09-03T22:40:06.998Z,50.40
2018-09-03T22:42:33.651Z,50.43
2018-09-03T22:45:00.323Z,50.51
2018-09-03T22:47:27.010Z,50.51
2018-09-03T22:49:53.622Z,50.54
2018-09-03T22:52:20.293Z,50.59
2018-09-03T22:54:46.983Z,50.65
2018-09-03T22:57:13.718Z,50.67
2018-09-03T22:59:40.356Z,50.69
2018-09-03T23:02:07.032Z,50.68
2018-09-03T23:04:33.666Z,50.81
2018-09-03T23:07:00.306Z,50.81
2018-09-03T23:09:26.962Z,50.79
2018-09-03T23:11:53.644Z,51.04
2018-09-03T23:14:21.743Z,50.85
2018-09-03T23:16:47.058Z,50.91
2018-09-03T23:19:14.576Z,50.92
2018-09-03T23:21:41.267Z,50.93
2018-09-03T23:24:07.955Z,50.89
2018-09-03T23:26:34.914Z,51.10
2018-09-03T23:29:06.315Z,51.13
2018-09-03T23:31:28.277Z,51.03
2018-09-03T23:33:55.043Z,51.27
2018-09-03T23:36:21.763Z,51.28
2018-09-03T23:38:48.385Z,51.15
2018-09-03T23:41:15.107Z,51.21
2018-09-03T23:43:41.909Z,51.25
2018-09-03T23:46:08.619Z,51.22
2018-09-03T23:48:35.273Z,51.35
2018-09-03T23:51:01.999Z,51.38
2018-09-03T23:53:31.612Z,51.29
2018-09-03T23:55:58.405Z,51.33
2018-09-03T23:58:25.677Z,51.37
